CheckWX is a tool to help pilots better visualize weather data.  It is not intended as a substitute for an official pre-flight weather briefing.

00:25:02 UTC

KLAF METAR
Purdue University Airport
Lafayette, Indiana, USA
Current

31 mins ago

KLAF 202354Z 01010G16KT 10SM CLR 13/M06 A2980 RMK AO2 SLP092 T01331056 10150 20117 51020
Observed
Apr-20 @ 23:54 UTC
Wind
  • 010° at 10 KTS
  • Gusting to 16 KTS
Visibility
10 SM
Flight Rules
VFR
Cloud Levels
  • Clear skies
Temperature
13°C / 55°F
Dewpoint
-6°C / 21°F
Humidity
26%
Altimeter
29.8" Hg
Pressure
1009.12 hPa
Previous

2 hours ago

KLAF 202254Z 36014G29KT 10SM FEW070 14/M04 A2979 RMK AO2 PK WND 35029/2246 SLP088 T01391044
Observed
Apr-20 @ 22:54 UTC
Wind
  • 360° at 14 KTS
  • Gusting to 29 KTS
Visibility
10 SM
Flight Rules
VFR
Cloud Levels
  • Few at 7,000' AGL
Temperature
14°C / 57°F
Dewpoint
-4°C / 25°F
Humidity
29%
Altimeter
29.79" Hg
Pressure
1008.82 hPa
Previous

3 hours ago

KLAF 202154Z 35013G22KT 10SM OVC055 14/01 A2976 RMK AO2 PK WND 35030/2138 SLP079 T01390006
Observed
Apr-20 @ 21:54 UTC
Wind
  • 350° at 13 KTS
  • Gusting to 22 KTS
Visibility
10 SM
Flight Rules
VFR
Cloud Levels
  • Overcast at 5,500' AGL
Temperature
14°C / 57°F
Dewpoint
C / 34°F
Humidity
41%
Altimeter
29.76" Hg
Pressure
1007.82 hPa